Time;durP1;ratioP1;P1;durP2;ratioP2;P2;SDS_P1;SDS_P2;PMS_P1;PMS_P2;Temp;Humidity;BMP_temperature;BMP_pressure;BME280_temperature;BME280_humidity;BME280_pressure;Samples;Min_cycle;Max_cycle;Signal;HPM_P1;HPM_P2
2022/07/23 00:01:29;;;;;;;2.78;1.33;;;15.60;99.90;;;;;;5050719;28;20068;-57
2022/07/23 00:04:01;;;;;;;2.70;1.58;;;15.50;99.90;;;;;;5050465;28;20027;-59
2022/07/23 00:06:27;;;;;;;2.97;1.17;;;15.60;99.90;;;;;;5047910;28;20025;-58
2022/07/23 00:08:53;;;;;;;2.28;1.00;;;15.60;99.90;;;;;;5050640;28;20470;-57
2022/07/23 00:11:19;;;;;;;3.63;1.55;;;15.50;99.90;;;;;;5032420;28;20606;-56
2022/07/23 00:13:44;;;;;;;1.35;1.00;;;15.60;99.90;;;;;;5050375;28;20021;-59
2022/07/23 00:16:10;;;;;;;1.25;1.15;;;15.50;99.90;;;;;;5050565;28;20037;-58
2022/07/23 00:18:36;;;;;;;3.75;1.50;;;15.60;99.90;;;;;;5050520;28;20479;-58
2022/07/23 00:21:02;;;;;;;2.63;1.40;;;15.60;99.90;;;;;;5050449;28;20428;-58
2022/07/23 00:23:28;;;;;;;1.80;1.30;;;15.60;99.90;;;;;;5050050;28;20025;-57
2022/07/23 00:25:54;;;;;;;2.60;1.17;;;15.50;99.90;;;;;;5050172;28;20451;-58
2022/07/23 00:28:21;;;;;;;3.58;1.08;;;15.50;99.90;;;;;;5049014;28;20052;-57
2022/07/23 00:30:46;;;;;;;1.35;0.80;;;15.50;99.90;;;;;;5032291;28;20021;-57
2022/07/23 00:33:12;;;;;;;3.17;0.90;;;15.50;99.90;;;;;;5050033;28;20479;-59
2022/07/23 00:35:40;;;;;;;4.18;1.35;;;15.40;99.90;;;;;;5032427;28;20420;-55
2022/07/23 00:38:09;;;;;;;0.90;0.77;;;15.40;99.90;;;;;;5049992;28;20036;-58
2022/07/23 00:40:35;;;;;;;2.10;1.05;;;15.40;99.90;;;;;;5031842;28;20075;-55
2022/07/23 00:43:01;;;;;;;1.63;1.02;;;15.40;99.90;;;;;;5049363;28;20494;-57
2022/07/23 00:45:27;;;;;;;3.45;0.77;;;15.40;99.90;;;;;;5049737;28;20122;-57
2022/07/23 00:47:53;;;;;;;4.30;1.33;;;15.30;99.90;;;;;;5049539;28;20163;-58
2022/07/23 00:50:19;;;;;;;1.20;0.70;;;15.30;99.90;;;;;;5049323;28;20092;-59
2022/07/23 00:52:45;;;;;;;2.35;1.30;;;15.30;99.90;;;;;;5049682;28;20102;-58
2022/07/23 00:55:11;;;;;;;3.40;1.40;;;15.30;99.90;;;;;;5048950;28;20492;-57
2022/07/23 00:57:37;;;;;;;1.42;1.05;;;15.20;99.90;;;;;;5049226;28;20376;-57
2022/07/23 01:00:08;;;;;;;3.83;1.27;;;15.20;99.90;;;;;;5046612;28;20035;-58
2022/07/23 01:02:34;;;;;;;3.15;1.10;;;15.20;99.90;;;;;;5047416;28;20036;-58
2022/07/23 01:05:00;;;;;;;2.67;1.13;;;15.20;99.90;;;;;;5048548;28;20021;-58
2022/07/23 01:07:26;;;;;;;2.08;1.27;;;15.20;99.90;;;;;;5049915;28;20025;-57
2022/07/23 01:09:52;;;;;;;1.27;0.80;;;15.20;99.90;;;;;;5047664;28;20045;-58
2022/07/23 01:12:18;;;;;;;2.25;0.85;;;15.20;99.90;;;;;;5030314;28;20048;-58
2022/07/23 01:14:44;;;;;;;1.77;1.08;;;15.20;99.90;;;;;;5048671;28;20679;-59
2022/07/23 01:17:09;;;;;;;2.63;1.25;;;15.10;99.90;;;;;;5047655;28;20024;-58
2022/07/23 01:19:35;;;;;;;1.73;1.25;;;15.10;99.90;;;;;;5048487;28;20025;-57
2022/07/23 01:22:03;;;;;;;1.52;1.00;;;15.10;99.90;;;;;;5013140;22;1087684;-49
2022/07/23 01:24:29;;;;;;;1.60;1.20;;;15.10;99.90;;;;;;5028401;28;20476;-50
2022/07/23 01:26:55;;;;;;;3.20;1.30;;;15.10;99.90;;;;;;5029229;28;20030;-52
2022/07/23 01:29:21;;;;;;;2.80;1.00;;;15.10;99.90;;;;;;5029439;28;20053;-53
2022/07/23 01:31:47;;;;;;;2.83;1.40;;;15.00;99.90;;;;;;5009985;28;20067;-50
2022/07/23 01:34:13;;;;;;;2.35;1.20;;;15.00;99.90;;;;;;5029312;28;20056;-52
2022/07/23 01:36:39;;;;;;;3.83;1.73;;;14.90;99.90;;;;;;5011625;28;20493;-49
2022/07/23 01:39:06;;;;;;;2.92;1.08;;;14.80;99.90;;;;;;5029442;28;20136;-52
2022/07/23 01:41:32;;;;;;;1.85;0.90;;;14.80;99.90;;;;;;5011240;28;20029;-48
2022/07/23 01:43:57;;;;;;;2.33;1.65;;;14.80;99.90;;;;;;5029459;28;20558;-50
2022/07/23 01:46:23;;;;;;;2.10;1.20;;;14.70;99.90;;;;;;5029634;28;20220;-51
2022/07/23 01:48:49;;;;;;;3.92;1.50;;;14.60;99.90;;;;;;5029104;28;20030;-53
2022/07/23 01:51:14;;;;;;;3.20;1.25;;;14.60;99.90;;;;;;5026398;28;20104;-52
2022/07/23 01:53:40;;;;;;;2.95;1.20;;;14.50;99.90;;;;;;5029091;28;20025;-49
2022/07/23 01:56:06;;;;;;;1.30;1.20;;;14.50;99.90;;;;;;5029116;28;20464;-51
2022/07/23 01:58:32;;;;;;;1.38;1.23;;;14.40;99.90;;;;;;5029121;28;20399;-50
2022/07/23 02:00:58;;;;;;;2.63;1.45;;;14.30;99.90;;;;;;5028873;28;20030;-52
2022/07/23 02:03:23;;;;;;;1.30;1.02;;;14.30;99.90;;;;;;5028385;28;20029;-53
2022/07/23 02:05:49;;;;;;;3.40;1.48;;;14.30;99.90;;;;;;5028962;28;20057;-49
2022/07/23 02:08:15;;;;;;;1.45;1.35;;;14.30;99.90;;;;;;5028258;28;20026;-52
2022/07/23 02:10:40;;;;;;;2.45;1.33;;;14.20;99.90;;;;;;5028768;28;20032;-50
2022/07/23 02:13:06;;;;;;;1.35;1.02;;;14.20;99.90;;;;;;5028323;28;20021;-49
2022/07/23 02:15:32;;;;;;;1.48;1.38;;;14.20;99.90;;;;;;5029076;28;20411;-51
2022/07/23 02:17:58;;;;;;;1.63;1.30;;;14.20;99.90;;;;;;5028672;28;20070;-52
2022/07/23 02:20:24;;;;;;;1.88;1.40;;;14.20;99.90;;;;;;5029138;28;20132;-48
2022/07/23 02:22:50;;;;;;;2.85;1.15;;;14.20;99.90;;;;;;5028866;28;20032;-51
2022/07/23 02:25:16;;;;;;;2.35;1.05;;;14.30;99.90;;;;;;5028897;28;20040;-51
2022/07/23 02:27:41;;;;;;;3.03;1.35;;;14.30;99.90;;;;;;5028920;28;20029;-51
2022/07/23 02:30:08;;;;;;;1.98;1.33;;;14.30;99.90;;;;;;5010655;28;20068;-48
2022/07/23 02:32:35;;;;;;;2.40;1.27;;;14.30;99.90;;;;;;5028218;28;20036;-51
2022/07/23 02:35:01;;;;;;;2.10;1.73;;;14.30;99.90;;;;;;5028600;28;20113;-50
2022/07/23 02:37:27;;;;;;;2.65;1.00;;;14.30;99.90;;;;;;5029007;28;20025;-50
2022/07/23 02:39:53;;;;;;;2.67;1.20;;;14.30;99.90;;;;;;5028615;28;20040;-52
2022/07/23 02:42:18;;;;;;;1.27;1.10;;;14.30;99.90;;;;;;5028281;28;20511;-53
2022/07/23 02:44:44;;;;;;;3.13;1.40;;;14.30;99.90;;;;;;5011002;28;20029;-51
2022/07/23 02:47:10;;;;;;;2.67;1.80;;;14.30;99.90;;;;;;5028245;28;20036;-49
2022/07/23 02:49:35;;;;;;;2.60;1.67;;;14.30;99.90;;;;;;5028683;28;20090;-51
2022/07/23 02:52:01;;;;;;;3.72;1.50;;;14.30;99.90;;;;;;5028098;28;20037;-49
2022/07/23 02:54:26;;;;;;;3.88;1.58;;;14.30;99.90;;;;;;5028652;28;20024;-48
2022/07/23 02:56:53;;;;;;;2.50;1.27;;;14.30;99.90;;;;;;5010754;28;20029;-55
2022/07/23 02:59:19;;;;;;;1.48;1.00;;;14.40;99.90;;;;;;5028695;28;20128;-51
2022/07/23 03:01:45;;;;;;;1.73;1.38;;;14.40;99.90;;;;;;5028282;28;20036;-49
2022/07/23 03:04:11;;;;;;;2.35;1.20;;;14.40;99.90;;;;;;5028647;28;20033;-52
2022/07/23 03:06:37;;;;;;;1.83;1.35;;;14.40;99.90;;;;;;5028590;28;20395;-51
2022/07/23 03:09:04;;;;;;;1.85;0.93;;;14.40;99.90;;;;;;5028508;28;20025;-48
2022/07/23 03:11:29;;;;;;;2.85;1.05;;;14.40;99.90;;;;;;5022275;28;20025;-50
2022/07/23 03:13:55;;;;;;;2.55;1.30;;;14.40;99.90;;;;;;5028524;28;20041;-50
2022/07/23 03:16:21;;;;;;;1.55;1.20;;;14.40;99.90;;;;;;5010702;28;20029;-54
2022/07/23 03:18:46;;;;;;;1.92;1.08;;;14.40;99.90;;;;;;5030162;28;20021;-49
2022/07/23 03:21:12;;;;;;;2.47;1.10;;;14.40;99.90;;;;;;5031483;28;20068;-51
2022/07/23 03:23:38;;;;;;;1.48;0.93;;;14.50;99.90;;;;;;5032335;28;20562;-49
2022/07/23 03:26:04;;;;;;;2.72;1.33;;;14.50;99.90;;;;;;5031899;28;20029;-50
2022/07/23 03:28:30;;;;;;;1.67;1.20;;;14.50;99.90;;;;;;5031565;28;20391;-52
2022/07/23 03:30:56;;;;;;;3.40;1.30;;;14.50;99.90;;;;;;5028795;28;20022;-50
2022/07/23 03:33:22;;;;;;;1.48;0.95;;;14.50;99.90;;;;;;5031890;28;20472;-52
2022/07/23 03:35:48;;;;;;;1.27;0.90;;;14.50;99.90;;;;;;5032007;28;20028;-50
2022/07/23 03:38:14;;;;;;;2.40;1.55;;;14.50;99.90;;;;;;5032624;28;20109;-53
2022/07/23 03:40:40;;;;;;;2.70;1.10;;;14.50;99.90;;;;;;5032446;28;20021;-53
2022/07/23 03:43:05;;;;;;;3.25;1.55;;;14.50;99.90;;;;;;5031545;28;20530;-49
2022/07/23 03:45:31;;;;;;;1.92;1.02;;;14.50;99.90;;;;;;5031447;28;20044;-49
2022/07/23 03:47:57;;;;;;;1.73;1.05;;;14.50;99.90;;;;;;5031475;28;20029;-48
2022/07/23 03:50:23;;;;;;;1.55;1.33;;;14.60;99.90;;;;;;5031349;28;20029;-49
2022/07/23 03:52:49;;;;;;;1.83;1.10;;;14.50;99.90;;;;;;5031237;28;20026;-49
2022/07/23 03:55:14;;;;;;;2.85;1.40;;;14.60;99.90;;;;;;5030993;28;20017;-51
2022/07/23 03:57:40;;;;;;;2.45;1.50;;;14.60;99.90;;;;;;5031187;28;20108;-51
2022/07/23 04:00:09;;;;;;;1.90;1.15;;;14.60;99.90;;;;;;5031298;28;20083;-51
2022/07/23 04:02:36;;;;;;;1.40;1.02;;;14.60;99.90;;;;;;5030818;28;20060;-48
2022/07/23 04:05:02;;;;;;;1.92;1.00;;;14.60;99.90;;;;;;5030936;28;20043;-50
2022/07/23 04:07:28;;;;;;;3.40;1.23;;;14.60;99.90;;;;;;5030799;28;20068;-51
2022/07/23 04:09:54;;;;;;;1.77;1.23;;;14.60;99.90;;;;;;5030990;28;20053;-48
2022/07/23 04:12:20;;;;;;;3.40;1.30;;;14.70;99.90;;;;;;5030674;28;20029;-48
2022/07/23 04:14:45;;;;;;;1.40;1.00;;;14.70;99.90;;;;;;5031172;28;20031;-50
2022/07/23 04:17:11;;;;;;;3.95;1.60;;;14.80;99.90;;;;;;5030770;28;20033;-52
2022/07/23 04:19:39;;;;;;;1.35;1.25;;;14.80;99.90;;;;;;5013006;28;20675;-49
2022/07/23 04:22:09;;;;;;;4.20;1.30;;;14.90;99.90;;;;;;5030340;28;20037;-49
2022/07/23 04:24:35;;;;;;;3.03;1.13;;;15.00;99.90;;;;;;5030551;28;20033;-49
2022/07/23 04:27:01;;;;;;;3.58;1.10;;;15.00;99.90;;;;;;5030685;28;20393;-49
2022/07/23 04:29:26;;;;;;;1.65;1.25;;;15.00;99.90;;;;;;5029661;28;20104;-50
2022/07/23 04:31:52;;;;;;;3.65;1.23;;;15.10;99.90;;;;;;5011904;28;20039;-51
2022/07/23 04:34:18;;;;;;;1.50;0.93;;;15.10;99.90;;;;;;5030237;28;20026;-51
2022/07/23 04:36:44;;;;;;;1.30;1.02;;;15.10;99.90;;;;;;5029629;28;20038;-51
2022/07/23 04:39:09;;;;;;;2.65;1.02;;;15.10;99.90;;;;;;5030350;28;20029;-51
2022/07/23 04:41:35;;;;;;;1.52;1.20;;;15.10;99.90;;;;;;5029440;28;20030;-49
2022/07/23 04:44:02;;;;;;;1.13;0.85;;;15.10;99.90;;;;;;5030404;28;20017;-49
2022/07/23 04:46:27;;;;;;;4.82;1.27;;;15.10;99.90;;;;;;5030033;28;20033;-52
2022/07/23 04:48:53;;;;;;;1.35;1.25;;;15.10;99.90;;;;;;5030124;28;20021;-48
2022/07/23 04:51:19;;;;;;;2.55;1.00;;;15.10;99.90;;;;;;5030159;28;20128;-48
2022/07/23 04:53:45;;;;;;;1.45;1.00;;;15.10;99.90;;;;;;5030136;28;20105;-48
2022/07/23 04:56:10;;;;;;;1.00;1.00;;;15.00;99.90;;;;;;5029626;28;20282;-48
2022/07/23 04:58:36;;;;;;;1.48;1.38;;;15.10;99.90;;;;;;5030076;28;20028;-51
2022/07/23 05:01:02;;;;;;;4.47;1.73;;;15.10;99.90;;;;;;5029669;28;20044;-48
2022/07/23 05:03:28;;;;;;;1.45;0.82;;;15.00;99.90;;;;;;5029947;28;20032;-48
2022/07/23 05:05:53;;;;;;;3.38;1.20;;;15.10;99.90;;;;;;5029800;28;20031;-50
2022/07/23 05:08:19;;;;;;;3.40;1.13;;;15.00;99.90;;;;;;5029795;28;20060;-49
2022/07/23 05:10:44;;;;;;;0.95;0.80;;;15.10;99.90;;;;;;5029560;28;20029;-51
2022/07/23 05:13:10;;;;;;;1.90;1.10;;;15.10;99.90;;;;;;5029466;28;20068;-49
2022/07/23 05:15:36;;;;;;;1.10;0.88;;;15.00;99.90;;;;;;5030038;28;20025;-50
2022/07/23 05:18:01;;;;;;;1.83;1.42;;;15.00;99.90;;;;;;5029779;28;20152;-48
2022/07/23 05:20:27;;;;;;;1.85;1.02;;;15.10;99.90;;;;;;5029622;28;20072;-51
2022/07/23 05:22:52;;;;;;;1.00;0.90;;;15.10;99.90;;;;;;5028923;28;20032;-50
2022/07/23 05:25:18;;;;;;;3.05;1.00;;;15.10;99.90;;;;;;5029809;28;20440;-50
2022/07/23 05:27:44;;;;;;;2.20;1.00;;;15.10;99.90;;;;;;5029690;28;20033;-52
2022/07/23 05:30:10;;;;;;;1.45;0.77;;;15.10;99.90;;;;;;5028929;28;20026;-52
2022/07/23 05:32:39;;;;;;;2.35;0.70;;;15.10;99.90;;;;;;5028923;28;20096;-56
2022/07/23 05:35:06;;;;;;;0.73;0.55;;;15.10;99.90;;;;;;5029556;28;20029;-52
2022/07/23 05:37:31;;;;;;;2.08;0.90;;;15.10;99.90;;;;;;5028119;28;20103;-49
2022/07/23 05:40:03;;;;;;;2.45;1.10;;;15.20;99.90;;;;;;5029184;28;20491;-49
2022/07/23 05:42:29;;;;;;;2.35;1.30;;;15.20;99.90;;;;;;5028466;28;20040;-54
2022/07/23 05:44:55;;;;;;;1.25;0.70;;;15.20;99.90;;;;;;5029308;28;20033;-53
2022/07/23 05:47:20;;;;;;;0.82;0.47;;;15.20;99.90;;;;;;5028631;28;20040;-50
2022/07/23 05:49:46;;;;;;;1.15;0.70;;;15.20;99.90;;;;;;5029338;28;20029;-54
2022/07/23 05:52:11;;;;;;;1.35;0.80;;;15.20;99.90;;;;;;5011174;28;20036;-50
2022/07/23 05:54:37;;;;;;;3.60;0.93;;;15.20;99.90;;;;;;5029142;28;20025;-54
2022/07/23 05:57:03;;;;;;;1.23;0.50;;;15.20;99.90;;;;;;5010974;28;20391;-58
2022/07/23 05:59:29;;;;;;;1.55;0.73;;;15.20;99.90;;;;;;5029239;28;20029;-53
2022/07/23 06:01:55;;;;;;;2.22;0.75;;;15.20;99.90;;;;;;5011016;28;20480;-52
2022/07/23 06:04:20;;;;;;;0.50;0.50;;;15.20;99.90;;;;;;5029193;28;20029;-51
2022/07/23 06:06:46;;;;;;;2.83;0.65;;;15.30;99.90;;;;;;5029271;28;20061;-50
2022/07/23 06:09:13;;;;;;;1.45;0.70;;;15.30;99.90;;;;;;5028381;28;20035;-52
2022/07/23 06:11:40;;;;;;;1.40;0.65;;;15.40;99.90;;;;;;5028123;28;20062;-50
2022/07/23 06:14:06;;;;;;;1.85;1.08;;;15.40;99.90;;;;;;5028540;28;20029;-56
2022/07/23 06:16:31;;;;;;;2.17;1.02;;;15.50;99.90;;;;;;5029251;28;20412;-53
2022/07/23 06:18:57;;;;;;;0.63;0.60;;;15.50;99.90;;;;;;5026395;28;20128;-51
2022/07/23 06:21:22;;;;;;;2.25;1.10;;;15.50;99.90;;;;;;5028123;28;20029;-54
2022/07/23 06:23:48;;;;;;;3.40;0.90;;;15.50;99.90;;;;;;5028402;28;20403;-53
2022/07/23 06:26:14;;;;;;;1.60;1.17;;;15.60;99.90;;;;;;5011317;28;20034;-53
2022/07/23 06:28:39;;;;;;;1.55;1.05;;;15.60;99.90;;;;;;5028965;28;20013;-52
2022/07/23 06:31:05;;;;;;;1.15;0.90;;;15.60;99.90;;;;;;5028733;28;20021;-53
2022/07/23 06:33:31;;;;;;;1.23;0.65;;;15.70;99.90;;;;;;5028634;28;20029;-51
2022/07/23 06:35:56;;;;;;;1.95;0.77;;;15.70;99.90;;;;;;5011259;28;20094;-52
2022/07/23 06:38:22;;;;;;;3.00;0.85;;;15.80;99.90;;;;;;5028566;28;20037;-50
2022/07/23 06:40:47;;;;;;;1.30;1.20;;;16.00;99.90;;;;;;5028113;28;20109;-50
2022/07/23 06:43:13;;;;;;;0.85;0.68;;;15.90;99.90;;;;;;5011126;28;20021;-51
2022/07/23 06:45:38;;;;;;;1.38;0.75;;;16.00;99.90;;;;;;5028820;28;20028;-50
2022/07/23 06:48:04;;;;;;;1.73;0.55;;;16.00;99.90;;;;;;5028648;28;20083;-51
2022/07/23 06:50:30;;;;;;;0.70;0.50;;;16.00;99.90;;;;;;5028516;28;20022;-49
2022/07/23 06:52:56;;;;;;;0.45;0.45;;;16.10;99.90;;;;;;5028745;28;20029;-50
2022/07/23 06:55:21;;;;;;;1.45;0.95;;;16.10;99.90;;;;;;5032377;28;20371;-53
2022/07/23 06:57:47;;;;;;;3.50;1.02;;;16.10;99.90;;;;;;5032550;28;20182;-52
2022/07/23 07:00:13;;;;;;;3.55;1.40;;;16.20;99.90;;;;;;5032355;28;20029;-54
2022/07/23 07:02:38;;;;;;;1.73;1.42;;;16.40;99.90;;;;;;5031580;28;20033;-51
2022/07/23 07:05:04;;;;;;;3.95;1.48;;;16.70;99.90;;;;;;5032318;28;20040;-51
2022/07/23 07:07:30;;;;;;;3.08;0.90;;;16.80;99.90;;;;;;5032080;28;20126;-52
2022/07/23 07:09:55;;;;;;;1.17;0.77;;;16.90;99.90;;;;;;5031780;28;20025;-52
2022/07/23 07:12:21;;;;;;;2.78;1.00;;;17.00;99.90;;;;;;5031746;28;20480;-55
2022/07/23 07:14:46;;;;;;;1.52;0.70;;;17.00;99.90;;;;;;5032023;28;20021;-50
2022/07/23 07:17:12;;;;;;;1.75;0.65;;;16.90;99.90;;;;;;5031784;28;20022;-50
2022/07/23 07:19:37;;;;;;;3.47;0.70;;;16.90;99.90;;;;;;5032095;28;20032;-50
2022/07/23 07:22:03;;;;;;;1.60;0.80;;;16.90;99.90;;;;;;5017518;23;20450;-61
2022/07/23 07:24:29;;;;;;;1.05;0.70;;;16.90;99.90;;;;;;5051655;28;20021;-60
2022/07/23 07:26:54;;;;;;;1.35;0.80;;;16.90;99.90;;;;;;5049560;28;20070;-59
2022/07/23 07:29:20;;;;;;;2.75;0.65;;;16.90;99.90;;;;;;5051644;28;20062;-58
2022/07/23 07:31:45;;;;;;;2.53;0.75;;;17.00;99.90;;;;;;5049116;28;20033;-59
2022/07/23 07:34:11;;;;;;;1.52;0.70;;;17.00;99.90;;;;;;5050707;28;20028;-58
2022/07/23 07:36:37;;;;;;;2.55;0.80;;;17.10;99.90;;;;;;5050592;28;20689;-57
2022/07/23 07:39:04;;;;;;;1.23;0.50;;;17.20;99.90;;;;;;5051218;28;20029;-59
2022/07/23 07:41:30;;;;;;;1.45;0.55;;;17.20;99.90;;;;;;5049869;28;20484;-57
2022/07/23 07:43:56;;;;;;;3.13;0.80;;;17.30;99.90;;;;;;5050862;28;20021;-59
2022/07/23 07:46:23;;;;;;;0.70;0.60;;;17.30;99.90;;;;;;5051138;28;20086;-59
2022/07/23 07:48:50;;;;;;;1.88;0.60;;;17.40;99.90;;;;;;5049783;28;20392;-58
2022/07/23 07:51:15;;;;;;;0.70;0.60;;;17.30;99.90;;;;;;5050236;28;20079;-59
2022/07/23 07:53:41;;;;;;;1.85;0.70;;;17.50;99.90;;;;;;5045851;28;20362;-58
2022/07/23 07:56:07;;;;;;;0.95;0.52;;;17.60;99.90;;;;;;5033070;28;20025;-57
2022/07/23 07:58:32;;;;;;;2.30;0.70;;;17.70;99.90;;;;;;5033321;28;20021;-58
2022/07/23 08:00:58;;;;;;;2.17;1.05;;;17.90;99.90;;;;;;5050057;28;20104;-60
2022/07/23 08:03:23;;;;;;;2.20;1.08;;;18.10;99.90;;;;;;5050812;28;20024;-58
2022/07/23 08:05:49;;;;;;;2.60;0.80;;;18.10;99.90;;;;;;5031075;28;20392;-59
2022/07/23 08:08:15;;;;;;;0.60;0.47;;;18.20;99.90;;;;;;5049449;28;20454;-55
2022/07/23 08:10:41;;;;;;;2.33;0.73;;;18.20;99.90;;;;;;5046943;28;20025;-58
2022/07/23 08:13:07;;;;;;;1.50;1.40;;;18.00;99.90;;;;;;5026038;28;20098;-59
2022/07/23 08:15:33;;;;;;;1.42;0.65;;;17.90;99.90;;;;;;5048487;28;20028;-59
2022/07/23 08:17:59;;;;;;;1.92;0.80;;;17.90;99.90;;;;;;5031614;28;20029;-57
2022/07/23 08:20:25;;;;;;;1.48;0.60;;;18.00;99.90;;;;;;5048297;28;20533;-59
2022/07/23 08:22:54;;;;;;;2.70;0.57;;;18.10;99.90;;;;;;5049886;28;20041;-57
2022/07/23 08:25:23;;;;;;;2.50;0.93;;;18.00;99.90;;;;;;5043060;28;20024;-59
2022/07/23 08:27:49;;;;;;;1.00;0.88;;;18.10;99.90;;;;;;5032357;28;20108;-60
2022/07/23 08:30:16;;;;;;;1.40;0.82;;;18.10;99.90;;;;;;5048998;28;20021;-58
2022/07/23 08:33:01;;;;;;;4.70;1.08;;;18.20;99.90;;;;;;5025887;28;20021;-56
2022/07/23 08:35:39;;;;;;;1.55;0.80;;;18.30;99.90;;;;;;5027052;28;20043;-60
2022/07/23 08:38:08;;;;;;;2.10;0.68;;;18.40;99.90;;;;;;5045162;28;20033;-59
2022/07/23 08:40:36;;;;;;;2.15;0.80;;;18.50;99.90;;;;;;5047458;28;20048;-60
2022/07/23 08:43:06;;;;;;;2.28;0.85;;;18.50;99.90;;;;;;5049850;28;20029;-57
2022/07/23 08:45:37;;;;;;;1.58;0.95;;;18.60;99.90;;;;;;5045856;28;20438;-56
2022/07/23 08:48:05;;;;;;;0.85;0.47;;;18.60;99.90;;;;;;5049379;28;20025;-60
2022/07/23 08:50:32;;;;;;;3.28;0.80;;;18.50;99.90;;;;;;5031930;28;20017;-60
2022/07/23 08:53:00;;;;;;;2.90;0.80;;;18.50;99.90;;;;;;5048946;28;20025;-61
2022/07/23 08:55:25;;;;;;;2.17;0.95;;;18.50;99.90;;;;;;5030802;28;20021;-59
2022/07/23 08:57:52;;;;;;;0.60;0.52;;;18.50;99.90;;;;;;5049523;28;20033;-60
2022/07/23 09:00:20;;;;;;;1.77;0.77;;;18.50;99.90;;;;;;5049990;28;20027;-58
2022/07/23 09:02:46;;;;;;;1.10;0.82;;;18.50;99.90;;;;;;5048502;28;20078;-59
2022/07/23 09:05:13;;;;;;;0.45;0.45;;;18.70;99.90;;;;;;5031549;28;20514;-57
2022/07/23 09:08:04;;;;;;;2.00;0.85;;;18.90;99.90;;;;;;5049792;28;20048;-56
2022/07/23 09:10:31;;;;;;;1.17;0.80;;;18.90;99.90;;;;;;5043206;28;20017;-61
2022/07/23 09:12:56;;;;;;;0.73;0.63;;;18.80;99.90;;;;;;5046115;28;20045;-59
2022/07/23 09:15:22;;;;;;;2.47;0.52;;;18.80;99.90;;;;;;5044842;28;20059;-60
2022/07/23 09:17:48;;;;;;;3.10;0.65;;;18.90;99.90;;;;;;5047391;28;20098;-59
2022/07/23 09:20:16;;;;;;;0.70;0.40;;;19.10;99.90;;;;;;5041601;28;20088;-60
2022/07/23 09:22:46;;;;;;;1.38;0.65;;;19.30;99.90;;;;;;5048834;28;20078;-58
2022/07/23 09:25:15;;;;;;;2.53;0.85;;;19.50;99.90;;;;;;5030867;28;20036;-60
2022/07/23 09:27:54;;;;;;;1.45;0.60;;;19.40;99.90;;;;;;5046616;28;20134;-59
2022/07/23 09:30:22;;;;;;;1.40;0.70;;;19.50;99.90;;;;;;5028431;28;20150;-58
2022/07/23 09:33:06;;;;;;;1.65;0.68;;;19.60;99.90;;;;;;5048961;28;20009;-60
2022/07/23 09:35:51;;;;;;;2.20;0.65;;;19.50;99.90;;;;;;5041091;28;20556;-59
2022/07/23 09:38:18;;;;;;;0.68;0.47;;;19.50;99.90;;;;;;5044161;28;20032;-55
2022/07/23 09:40:45;;;;;;;0.50;0.40;;;19.40;99.90;;;;;;5022171;28;20036;-58
2022/07/23 09:43:11;;;;;;;0.40;0.40;;;19.20;99.90;;;;;;5048291;28;20031;-60
2022/07/23 09:45:39;;;;;;;0.85;0.63;;;19.00;99.90;;;;;;5047507;28;20025;-59
2022/07/23 09:48:12;;;;;;;1.23;0.60;;;18.80;99.90;;;;;;5029901;28;20044;-60
2022/07/23 09:50:39;;;;;;;1.38;0.40;;;18.70;99.90;;;;;;5048594;28;20021;-59
2022/07/23 09:53:05;;;;;;;2.05;1.10;;;18.70;99.90;;;;;;5048912;28;20108;-60
2022/07/23 09:55:36;;;;;;;0.52;0.40;;;18.70;99.90;;;;;;5043422;28;20140;-60
2022/07/23 09:58:03;;;;;;;1.65;0.25;;;18.70;99.90;;;;;;5049041;28;20364;-57
2022/07/23 10:00:31;;;;;;;1.45;0.50;;;18.60;99.90;;;;;;5040410;28;20665;-58
2022/07/23 10:02:57;;;;;;;0.55;0.50;;;18.60;99.90;;;;;;5047643;28;20036;-57
2022/07/23 10:05:24;;;;;;;0.95;0.30;;;18.50;99.90;;;;;;5048138;28;20387;-56
2022/07/23 10:07:51;;;;;;;0.88;0.28;;;18.50;99.90;;;;;;5048739;28;20029;-58
2022/07/23 10:10:20;;;;;;;0.93;0.40;;;18.50;99.90;;;;;;5044697;28;20112;-57
2022/07/23 10:13:02;;;;;;;1.70;0.68;;;18.50;99.90;;;;;;5048288;28;20021;-59
2022/07/23 10:15:28;;;;;;;1.35;0.45;;;18.60;99.90;;;;;;5039007;28;20028;-57
2022/07/23 10:17:54;;;;;;;2.92;0.52;;;18.70;99.90;;;;;;5027238;28;20091;-58
2022/07/23 10:20:20;;;;;;;2.05;0.43;;;18.90;99.90;;;;;;5029522;28;20503;-59
2022/07/23 10:23:04;;;;;;;2.22;0.60;;;19.10;99.90;;;;;;5048227;28;20499;-59
2022/07/23 10:25:45;;;;;;;0.65;0.60;;;19.40;99.90;;;;;;5038145;28;20029;-59
2022/07/23 10:28:39;;;;;;;1.63;0.50;;;19.50;99.90;;;;;;5046795;28;20021;-59
2022/07/23 10:31:34;;;;;;;2.05;0.60;;;19.40;99.90;;;;;;5052971;28;20177;-59
2022/07/23 10:34:11;;;;;;;2.42;0.68;;;19.20;99.90;;;;;;5035445;28;20502;-59
2022/07/23 10:37:01;;;;;;;2.40;0.65;;;19.10;99.90;;;;;;5052728;28;20036;-57
2022/07/23 10:39:31;;;;;;;2.30;0.82;;;18.90;99.90;;;;;;5046271;28;20017;-59
2022/07/23 10:42:11;;;;;;;0.90;0.40;;;18.80;99.90;;;;;;5052097;28;20025;-57
2022/07/23 10:44:45;;;;;;;0.60;0.40;;;18.80;99.90;;;;;;5047422;28;20024;-58
2022/07/23 10:50:37;;;;;;;0.50;0.40;;;18.70;99.90;;;;;;5052575;28;20075;-59
2022/07/23 10:53:08;;;;;;;2.78;0.65;;;18.70;99.90;;;;;;5050848;28;20031;-58
2022/07/23 10:55:33;;;;;;;1.27;0.60;;;18.80;99.90;;;;;;5034035;28;20017;-59
2022/07/23 10:58:03;;;;;;;0.50;0.50;;;18.90;99.90;;;;;;5059058;28;20036;-57
2022/07/23 11:00:32;;;;;;;0.63;0.40;;;19.00;99.90;;;;;;5052235;28;20036;-60
2022/07/23 11:03:00;;;;;;;0.30;0.30;;;19.20;99.90;;;;;;5051759;28;20056;-57
2022/07/23 11:05:43;;;;;;;0.40;0.20;;;19.30;99.90;;;;;;5052266;28;20021;-57
2022/07/23 11:08:14;;;;;;;1.30;0.40;;;19.30;99.90;;;;;;5034462;28;20029;-59
2022/07/23 11:10:44;;;;;;;0.88;0.38;;;19.30;99.90;;;;;;5052231;28;20013;-58
2022/07/23 11:13:21;;;;;;;0.63;0.57;;;19.30;99.90;;;;;;5051747;28;20041;-60
2022/07/23 11:16:17;;;;;;;0.95;0.30;;;19.40;99.90;;;;;;5029757;28;20064;-62
2022/07/23 11:18:43;;;;;;;1.05;0.45;;;19.50;99.90;;;;;;5047834;28;20029;-60
2022/07/23 11:21:30;;;;;;;1.95;0.70;;;19.50;99.90;;;;;;5051063;28;20041;-60
2022/07/23 11:24:07;;;;;;;0.52;0.35;;;19.60;99.90;;;;;;5038269;28;20420;-60
2022/07/23 11:26:39;;;;;;;0.40;0.40;;;19.60;99.90;;;;;;5048147;28;20029;-59
2022/07/23 11:29:36;;;;;;;0.98;0.57;;;19.30;99.90;;;;;;5050733;28;20044;-59
2022/07/23 11:32:03;;;;;;;;;;;19.30;99.90;;;;;;5033025;28;20071;-59
2022/07/23 11:34:38;;;;;;;0.73;0.70;;;19.30;99.90;;;;;;5029574;28;19916;-59
2022/07/23 11:37:06;;;;;;;1.10;0.50;;;19.40;99.90;;;;;;5050557;28;20029;-57
2022/07/23 11:39:32;;;;;;;2.00;0.60;;;19.50;99.90;;;;;;5046739;28;20033;-57
2022/07/23 11:42:00;;;;;;;0.68;0.40;;;19.70;99.90;;;;;;5048466;28;20452;-57
2022/07/23 11:44:27;;;;;;;1.02;0.50;;;20.00;99.90;;;;;;5051746;28;20028;-58
2022/07/23 11:47:01;;;;;;;1.45;0.65;;;20.20;99.90;;;;;;5051423;28;20036;-59
2022/07/23 11:49:27;;;;;;;1.38;0.50;;;20.40;99.90;;;;;;5044807;28;20024;-56
2022/07/23 11:52:04;;;;;;;0.30;0.30;;;20.60;99.90;;;;;;5051010;28;20480;-58
2022/07/23 11:54:30;;;;;;;2.08;0.40;;;20.80;99.90;;;;;;5050927;28;20040;-62
2022/07/23 11:56:57;;;;;;;7.20;0.70;;;20.90;99.90;;;;;;5051217;28;20025;-61
2022/07/23 11:59:25;;;;;;;1.60;0.30;;;20.90;99.50;;;;;;5044139;28;20091;-54
2022/07/23 12:01:58;;;;;;;1.55;0.30;;;20.80;99.50;;;;;;5044566;28;20116;-58
2022/07/23 12:04:37;;;;;;;1.90;0.80;;;20.70;99.90;;;;;;5044253;28;20534;-60
2022/07/23 12:07:02;;;;;;;2.22;0.40;;;20.80;99.90;;;;;;5030811;28;20477;-61
2022/07/23 12:09:28;;;;;;;2.05;0.40;;;20.90;99.90;;;;;;5051025;28;20021;-59
2022/07/23 12:12:00;;;;;;;0.40;0.40;;;21.00;99.90;;;;;;5049809;28;20021;-60
2022/07/23 12:14:26;;;;;;;1.17;0.75;;;21.00;99.90;;;;;;5050895;28;20020;-59
2022/07/23 12:17:11;;;;;;;0.65;0.50;;;21.00;98.80;;;;;;5046260;28;20035;-59
2022/07/23 12:19:37;;;;;;;0.52;0.40;;;21.00;99.50;;;;;;5050757;28;20029;-61
2022/07/23 12:22:02;;;;;;;1.35;0.50;;;21.10;98.80;;;;;;5043926;28;20052;-60
2022/07/23 12:24:28;;;;;;;1.48;0.70;;;21.10;99.40;;;;;;5032935;28;20443;-58
2022/07/23 12:27:11;;;;;;;1.50;0.50;;;21.10;98.70;;;;;;5043837;28;20039;-60
2022/07/23 12:29:37;;;;;;;0.35;0.32;;;21.30;98.10;;;;;;5050619;28;20096;-61
2022/07/23 12:32:15;;;;;;;1.20;0.60;;;21.40;97.40;;;;;;5031945;28;20218;-61
2022/07/23 12:34:42;;;;;;;2.10;0.47;;;21.60;98.10;;;;;;5049895;28;20107;-58
2022/07/23 12:37:08;;;;;;;0.50;0.50;;;21.80;96.70;;;;;;5046014;28;20038;-59
2022/07/23 12:39:33;;;;;;;1.63;0.60;;;21.80;96.70;;;;;;5050370;28;20025;-61
2022/07/23 12:41:59;;;;;;;1.38;0.35;;;21.70;94.80;;;;;;5049674;28;20403;-61
2022/07/23 12:44:24;;;;;;;0.30;0.30;;;21.40;95.80;;;;;;5032462;28;20036;-59
2022/07/23 12:46:52;;;;;;;0.85;0.40;;;21.20;96.30;;;;;;5043837;28;20029;-59
2022/07/23 12:49:28;;;;;;;1.50;0.50;;;21.10;95.60;;;;;;5047149;28;20049;-59
2022/07/23 12:51:53;;;;;;;;;;;21.10;96.00;;;;;;5048711;28;20064;-58
2022/07/23 12:54:27;;;;;;;0.60;0.30;;;21.00;96.30;;;;;;5049147;28;19912;-57